createdAt,value
2022-09-11T00:02:06.434Z,99712.66
2022-09-11T00:06:11.172Z,99712.69
2022-09-11T00:10:13.027Z,99713.09
2022-09-11T00:14:14.947Z,99707.38
2022-09-11T00:18:21.719Z,99715.50
2022-09-11T00:22:23.499Z,99711.59
2022-09-11T00:26:25.354Z,99719.78
2022-09-11T00:30:27.652Z,99708.75
2022-09-11T00:34:29.419Z,99719.09
2022-09-11T00:38:33.305Z,99726.28
2022-09-11T00:42:35.059Z,99716.66
2022-09-11T00:47:05.509Z,99728.59
2022-09-11T00:51:07.269Z,99722.09
2022-09-11T00:55:16.527Z,99731.19
2022-09-11T00:59:21.564Z,99723.78
2022-09-11T01:03:24.826Z,99730.28
2022-09-11T01:07:26.945Z,99730.06
2022-09-11T01:11:58.354Z,99731.47
2022-09-11T01:16:25.290Z,99726.53
2022-09-11T01:21:03.068Z,99725.91
2022-09-11T01:25:27.976Z,99723.22
2022-09-11T01:29:35.486Z,99734.94
2022-09-11T01:34:00.396Z,99737.31
2022-09-11T01:38:18.398Z,99725.25
2022-09-11T01:42:22.358Z,99730.88
2022-09-11T01:46:25.903Z,99725.00
2022-09-11T01:50:27.886Z,99746.16
2022-09-11T01:54:33.372Z,99740.38
2022-09-11T01:58:36.410Z,99744.00
2022-09-11T02:02:55.087Z,99747.69
2022-09-11T02:07:20.042Z,99753.81
2022-09-11T02:11:30.675Z,99752.50
2022-09-11T02:15:47.065Z,99767.50
2022-09-11T02:19:56.088Z,99748.38
2022-09-11T02:23:58.068Z,99752.41
2022-09-11T02:27:59.780Z,99751.81
2022-09-11T02:32:03.681Z,99743.28
2022-09-11T02:36:19.567Z,99751.00
2022-09-11T02:40:44.903Z,99763.84
2022-09-11T02:45:14.446Z,99767.53
2022-09-11T02:49:43.486Z,99753.28
2022-09-11T02:54:23.152Z,99767.13
2022-09-11T02:58:39.580Z,99765.47
2022-09-11T03:02:43.018Z,99758.75
2022-09-11T03:06:45.004Z,99752.78
2022-09-11T03:10:46.794Z,99750.41
2022-09-11T03:14:49.559Z,99764.94
2022-09-11T03:18:51.865Z,99758.50
2022-09-11T03:22:53.609Z,99771.03
2022-09-11T03:26:55.319Z,99760.84
2022-09-11T03:30:57.707Z,99764.31
2022-09-11T03:35:01.266Z,99770.66
2022-09-11T03:39:03.277Z,99778.09
2022-09-11T03:43:05.138Z,99785.41
2022-09-11T03:47:07.241Z,99762.69
2022-09-11T03:51:09.159Z,99781.75
2022-09-11T03:55:11.087Z,99783.72
2022-09-11T03:59:13.206Z,99786.28
2022-09-11T04:03:15.744Z,99792.53
2022-09-11T04:07:17.650Z,99802.44
2022-09-11T04:11:19.442Z,99790.38
2022-09-11T04:15:21.997Z,99785.94
2022-09-11T04:19:23.867Z,99827.09
2022-09-11T04:23:25.746Z,99809.22
2022-09-11T04:27:27.763Z,99799.81
2022-09-11T04:31:29.564Z,99814.13
2022-09-11T04:35:39.532Z,99810.34
2022-09-11T04:39:41.358Z,99821.16
2022-09-11T04:43:43.393Z,99816.56
2022-09-11T04:47:45.253Z,99808.06
2022-09-11T04:51:46.995Z,99807.09
2022-09-11T04:55:50.655Z,99821.28
2022-09-11T04:59:53.075Z,99797.03
2022-09-11T05:03:56.212Z,99795.69
2022-09-11T05:07:58.047Z,99797.66
2022-09-11T05:11:59.764Z,99795.53
2022-09-11T05:16:09.393Z,99787.63
2022-09-11T05:20:21.723Z,99787.47
2022-09-11T05:25:25.603Z,99780.94
2022-09-11T05:29:32.238Z,99800.84
2022-09-11T05:33:34.662Z,99771.06
2022-09-11T05:37:45.500Z,99780.38
2022-09-11T05:41:58.966Z,99783.63
2022-09-11T05:46:01.184Z,99802.72
2022-09-11T05:50:05.123Z,99801.47
2022-09-11T05:54:08.373Z,99816.22
2022-09-11T05:58:11.330Z,99811.28
2022-09-11T06:02:15.566Z,99819.78
2022-09-11T06:06:18.648Z,99828.72
2022-09-11T06:10:20.593Z,99831.50
2022-09-11T06:14:22.443Z,99834.41
2022-09-11T06:18:24.298Z,99829.47
2022-09-11T06:22:29.783Z,99838.66
2022-09-11T06:26:35.952Z,99831.31
2022-09-11T06:30:37.743Z,99846.16
2022-09-11T06:34:39.612Z,99840.84
2022-09-11T06:38:41.632Z,99849.50
2022-09-11T06:42:46.070Z,99851.22
2022-09-11T06:46:47.819Z,99861.81
2022-09-11T06:50:51.966Z,99864.63
2022-09-11T06:54:53.771Z,99857.75
2022-09-11T06:58:55.700Z,99870.22
2022-09-11T07:02:57.635Z,99868.81
2022-09-11T07:07:05.378Z,99865.09
2022-09-11T07:11:08.307Z,99869.41
2022-09-11T07:15:13.430Z,99870.25
2022-09-11T07:19:15.145Z,99866.16
2022-09-11T07:23:16.969Z,99877.91
2022-09-11T07:27:19.641Z,99885.03
2022-09-11T07:31:23.813Z,99892.38
2022-09-11T07:35:25.677Z,99892.06
2022-09-11T07:39:27.379Z,99896.25
2022-09-11T07:43:36.757Z,99866.91
2022-09-11T07:47:38.711Z,99862.34
2022-09-11T07:51:40.504Z,99875.03
2022-09-11T07:55:45.096Z,99859.44
2022-09-11T07:59:46.940Z,99866.50
2022-09-11T08:03:58.514Z,99864.63
2022-09-11T08:08:00.361Z,99869.19
2022-09-11T08:12:02.993Z,99869.22
2022-09-11T08:16:05.799Z,99877.47
2022-09-11T08:20:08.697Z,99878.94
2022-09-11T08:24:13.227Z,99893.84
2022-09-11T08:28:15.175Z,99894.41
2022-09-11T08:32:16.954Z,99901.13
2022-09-11T08:36:19.952Z,99920.81
2022-09-11T08:40:21.992Z,99917.19
2022-09-11T08:44:39.113Z,99921.88
2022-09-11T08:49:05.477Z,99926.53
2022-09-11T08:53:12.732Z,99945.97
2022-09-11T08:57:23.428Z,99955.66
2022-09-11T09:01:37.709Z,99959.25
2022-09-11T09:06:14.160Z,99959.00
2022-09-11T09:10:43.280Z,99965.75
2022-09-11T09:15:34.221Z,99970.09
2022-09-11T09:19:56.614Z,99966.22
2022-09-11T09:24:02.326Z,99971.03
2022-09-11T09:28:20.466Z,99972.19
2022-09-11T09:32:56.834Z,99971.91
2022-09-11T09:37:22.345Z,99986.94
2022-09-11T09:41:45.605Z,100001.75
2022-09-11T09:46:29.005Z,100001.69
2022-09-11T09:50:48.084Z,99994.69
2022-09-11T09:55:01.606Z,99995.97
2022-09-11T09:59:17.211Z,100006.34
2022-09-11T10:03:30.088Z,100016.72
2022-09-11T10:07:32.529Z,99997.25
2022-09-11T10:11:40.086Z,100024.97
2022-09-11T10:15:51.502Z,100008.41
2022-09-11T10:19:56.726Z,100007.13
2022-09-11T10:24:05.134Z,100012.56
2022-09-11T10:28:15.123Z,100014.38
2022-09-11T10:32:23.207Z,100035.53
2022-09-11T10:36:38.987Z,100022.72
2022-09-11T10:40:41.362Z,100019.84
2022-09-11T10:44:51.931Z,100038.19
2022-09-11T10:49:14.259Z,100050.91
2022-09-11T10:53:23.591Z,100062.63
2022-09-11T10:57:48.845Z,100060.69
2022-09-11T11:01:53.292Z,100064.25
2022-09-11T11:06:16.658Z,100061.69
2022-09-11T11:10:31.194Z,100066.31
2022-09-11T11:15:10.084Z,100068.44
2022-09-11T11:19:35.827Z,100073.94
2022-09-11T11:24:02.887Z,100073.31
2022-09-11T11:28:35.724Z,100088.31
2022-09-11T11:33:05.939Z,100092.34
2022-09-11T11:37:15.776Z,100084.41
2022-09-11T11:41:26.104Z,100097.75
2022-09-11T11:46:05.740Z,100108.50
2022-09-11T11:50:58.583Z,100102.84
2022-09-11T11:55:23.409Z,100118.16
2022-09-11T11:59:42.073Z,100120.19
2022-09-11T12:04:01.619Z,100119.00
2022-09-11T12:08:03.373Z,100124.91
2022-09-11T12:12:06.649Z,100128.72
2022-09-11T12:16:19.217Z,100124.19
2022-09-11T12:20:45.188Z,100135.94
2022-09-11T12:24:58.949Z,100134.00
2022-09-11T12:29:14.184Z,100133.88
2022-09-11T12:33:43.641Z,100123.22
2022-09-11T12:38:13.279Z,100139.06
2022-09-11T12:42:47.485Z,100134.06
2022-09-11T12:46:49.228Z,100135.00
2022-09-11T12:50:55.898Z,100136.34
2022-09-11T12:54:59.534Z,100133.59
2022-09-11T12:59:09.452Z,100140.94
2022-09-11T13:03:23.233Z,100136.91
2022-09-11T13:07:40.849Z,100125.06
2022-09-11T13:11:45.263Z,100111.47
2022-09-11T13:15:47.426Z,100095.59
2022-09-11T13:19:53.171Z,100097.94
2022-09-11T13:23:57.594Z,100079.59
2022-09-11T13:28:06.062Z,100078.22
2022-09-11T13:32:13.123Z,100081.72
2022-09-11T13:36:15.023Z,100068.25
2022-09-11T13:40:25.163Z,100064.97
2022-09-11T13:44:58.291Z,100048.25
2022-09-11T13:49:15.750Z,100055.19
2022-09-11T13:53:22.123Z,100047.22
2022-09-11T13:57:34.558Z,100038.84
2022-09-11T14:01:37.262Z,100036.81
2022-09-11T14:05:40.241Z,100040.50
2022-09-11T14:09:42.170Z,100038.66
2022-09-11T14:14:01.385Z,100035.09
2022-09-11T14:18:04.076Z,100043.44
2022-09-11T14:22:25.737Z,100030.34
2022-09-11T14:26:31.882Z,100031.47
2022-09-11T14:30:38.225Z,100015.38
2022-09-11T14:34:40.107Z,100014.00
2022-09-11T14:38:43.336Z,100008.78
2022-09-11T14:42:45.599Z,100022.53
2022-09-11T14:46:49.299Z,100017.81
2022-09-11T14:50:51.214Z,100020.16
2022-09-11T14:54:53.284Z,100011.41
2022-09-11T14:58:59.379Z,100004.16
2022-09-11T15:03:01.221Z,100005.66
2022-09-11T15:07:03.103Z,100009.13
2022-09-11T15:11:05.001Z,100024.25
2022-09-11T15:15:07.528Z,100020.91
2022-09-11T15:19:09.987Z,100019.78
2022-09-11T15:23:11.771Z,100013.44
2022-09-11T15:27:13.922Z,100019.97
2022-09-11T15:31:18.516Z,100020.63
2022-09-11T15:35:21.405Z,100029.00
2022-09-11T15:39:24.442Z,100011.47
2022-09-11T15:43:34.735Z,100018.41
2022-09-11T15:47:36.637Z,100017.59
2022-09-11T15:51:39.120Z,100018.81
2022-09-11T15:55:45.359Z,100020.06
2022-09-11T15:59:47.197Z,100015.97
2022-09-11T16:04:00.522Z,100040.06
2022-09-11T16:08:02.412Z,100032.88
2022-09-11T16:12:05.018Z,100034.91
2022-09-11T16:16:07.297Z,100018.22
2022-09-11T16:20:09.601Z,100015.56
2022-09-11T16:24:15.839Z,100024.50
2022-09-11T16:28:17.840Z,100030.63
2022-09-11T16:32:28.659Z,100029.59
2022-09-11T16:36:33.598Z,100022.00
2022-09-11T16:40:41.186Z,100029.34
2022-09-11T16:44:43.105Z,100020.59
2022-09-11T16:48:50.476Z,100023.84
2022-09-11T16:52:55.031Z,100022.00
2022-09-11T16:56:57.251Z,100026.69
2022-09-11T17:01:16.153Z,100018.53
2022-09-11T17:05:28.602Z,100016.66
2022-09-11T17:09:33.908Z,100032.91
2022-09-11T17:13:39.669Z,100023.47
2022-09-11T17:17:44.427Z,100021.34
2022-09-11T17:26:21.701Z,100029.66
2022-09-11T17:30:48.397Z,100039.97
2022-09-11T17:35:00.448Z,100052.25
2022-09-11T17:39:05.224Z,100054.28
2022-09-11T17:43:13.216Z,100057.88
2022-09-11T17:47:15.197Z,100062.09
2022-09-11T17:51:20.231Z,100057.81
2022-09-11T17:55:26.632Z,100060.56
2022-09-11T17:59:34.232Z,100066.19
2022-09-11T18:03:46.860Z,100073.44
2022-09-11T18:08:03.115Z,100081.50
2022-09-11T18:12:08.237Z,100075.09
2022-09-11T18:16:18.179Z,100089.75
2022-09-11T18:20:20.370Z,100076.66
2022-09-11T18:24:37.230Z,100079.53
2022-09-11T18:28:44.320Z,100078.16
2022-09-11T18:33:17.225Z,100073.44
2022-09-11T18:37:26.408Z,100074.72
2022-09-11T18:41:30.385Z,100069.09
2022-09-11T18:45:41.750Z,100079.13
2022-09-11T18:49:53.842Z,100106.47
2022-09-11T18:53:56.332Z,100129.97
2022-09-11T18:58:00.192Z,100140.72
2022-09-11T19:02:06.138Z,100133.66
2022-09-11T19:06:31.659Z,100131.00
2022-09-11T19:10:55.071Z,100134.88
2022-09-11T19:15:00.337Z,100128.28
2022-09-11T19:19:12.919Z,100139.81
2022-09-11T19:23:19.285Z,100144.53
2022-09-11T19:27:30.739Z,100146.00
2022-09-11T19:31:33.902Z,100146.41
2022-09-11T19:35:35.816Z,100149.13
2022-09-11T19:39:38.085Z,100136.44
2022-09-11T19:43:43.199Z,100143.63
2022-09-11T19:47:45.296Z,100136.28
2022-09-11T19:51:47.305Z,100143.19
2022-09-11T19:55:55.925Z,100151.56
2022-09-11T19:59:57.832Z,100152.22
2022-09-11T20:04:07.965Z,100152.66
2022-09-11T20:08:16.150Z,100163.06
2022-09-11T20:12:18.285Z,100153.66
2022-09-11T20:16:53.368Z,100159.34
2022-09-11T20:20:55.127Z,100165.91
2022-09-11T20:25:00.532Z,100161.09
2022-09-11T20:29:07.982Z,100160.38
2022-09-11T20:33:12.859Z,100151.59
2022-09-11T20:37:14.673Z,100157.88
2022-09-11T20:41:16.696Z,100145.94
2022-09-11T20:45:18.550Z,100153.53
2022-09-11T20:49:21.344Z,100149.63
2022-09-11T20:53:23.175Z,100147.31
2022-09-11T20:57:24.866Z,100149.97
2022-09-11T21:01:27.505Z,100152.28
2022-09-11T21:05:30.840Z,100152.88
2022-09-11T21:09:32.802Z,100144.06
2022-09-11T21:13:39.059Z,100151.38
2022-09-11T21:17:40.796Z,100150.25
2022-09-11T21:21:42.735Z,100155.91
2022-09-11T21:25:44.465Z,100148.44
2022-09-11T21:29:46.318Z,100159.72
2022-09-11T21:33:48.490Z,100152.00
2022-09-11T21:37:50.237Z,100162.47
2022-09-11T21:41:52.028Z,100151.81
2022-09-11T21:45:54.118Z,100172.94
2022-09-11T21:49:55.906Z,100184.41
2022-09-11T21:53:58.936Z,100160.94
2022-09-11T21:58:00.677Z,100160.94
2022-09-11T22:02:02.437Z,100164.81
2022-09-11T22:06:08.140Z,100164.31
2022-09-11T22:10:10.228Z,100163.31
2022-09-11T22:14:12.213Z,100155.00
2022-09-11T22:18:14.496Z,100149.56
2022-09-11T22:22:16.354Z,100162.00
2022-09-11T22:26:19.977Z,100150.22
2022-09-11T22:30:21.981Z,100148.38
2022-09-11T22:34:23.924Z,100149.91
2022-09-11T22:38:25.782Z,100169.28
2022-09-11T22:42:27.490Z,100147.75
2022-09-11T22:46:29.441Z,100158.66
2022-09-11T22:50:31.313Z,100143.72
2022-09-11T22:54:33.199Z,100164.69
2022-09-11T22:58:35.258Z,100157.44
2022-09-11T23:02:37.620Z,100162.16
2022-09-11T23:06:58.012Z,100177.38
2022-09-11T23:11:02.738Z,100179.41
2022-09-11T23:15:05.677Z,100175.91
2022-09-11T23:19:07.443Z,100177.84
2022-09-11T23:23:09.247Z,100178.31
2022-09-11T23:27:11.317Z,100181.03
2022-09-11T23:31:16.629Z,100185.31
2022-09-11T23:35:18.446Z,100177.69
2022-09-11T23:39:20.242Z,100183.91
2022-09-11T23:43:22.087Z,100179.91
2022-09-11T23:47:23.829Z,100172.84
2022-09-11T23:51:26.788Z,100164.56
2022-09-11T23:55:28.728Z,100177.09
2022-09-11T23:59:35.524Z,100166.63
